Airbus 320-251N from TAP Air Portugal at Funchal.
 Regi:CS-TVB  LARGER
 MSN Year:8749 2019
 Date of picture:2019-05-22 18:14
 Position:05
 Flight: ARR LIS TP1687 Lissabon Humberto Delgado Airport Portugal
 Logs: LIS Lissabon TP1687 Tap Air Portugal 18:07 PM A20N landed
 Notam LPMA A1836/19 International 05/22/2019 0902 05/22/2019 1700 GRASS CUTTING ALONG RWY 05/23 STRIPS. MEN AND EQUIPMENT UNDER TOWER CONTROL AND AERODROME AUTHORITY SUPERVISION.
 Metar 22/05/2019 18:00 METAR LPMA 221800Z 01007KT 310V060 9999 FEW016 22/11 Q1021=
 Hits: 30 ID: 2305

Debriefing: Photographed movements of Airports in NW-Europe.
The images of our site attendant is in authorisation from Queen of Sky.
Copying of images of this site have been prohibited in which manner without the authorisation of the photographer.
In behalf of the crew :"Thank you visiting us" - Contact
Factsheets Airbus, 320-251N, TAP Air Portugal, made by De Plane! © 2006 - 2022 All rights reserved


.